sensor_id;sensor_type;location;lat;lon;timestamp;P1;durP1;ratioP1;P2;durP2;ratioP2
5898;SDS011;2975;50.956;6.962;2023-01-01T00:00:46;34.73;;;19.30;;
5898;SDS011;2975;50.956;6.962;2023-01-01T00:03:12;36.67;;;17.77;;
5898;SDS011;2975;50.956;6.962;2023-01-01T00:05:38;37.13;;;19.77;;
5898;SDS011;2975;50.956;6.962;2023-01-01T00:08:04;33.63;;;17.43;;
5898;SDS011;2975;50.956;6.962;2023-01-01T00:10:29;31.77;;;16.70;;
5898;SDS011;2975;50.956;6.962;2023-01-01T00:12:55;30.03;;;15.77;;
5898;SDS011;2975;50.956;6.962;2023-01-01T00:15:22;28.43;;;14.90;;
5898;SDS011;2975;50.956;6.962;2023-01-01T00:17:48;28.47;;;14.40;;
5898;SDS011;2975;50.956;6.962;2023-01-01T00:20:14;25.47;;;13.83;;
5898;SDS011;2975;50.956;6.962;2023-01-01T00:22:40;24.23;;;11.80;;
5898;SDS011;2975;50.956;6.962;2023-01-01T00:25:06;33.13;;;19.23;;
5898;SDS011;2975;50.956;6.962;2023-01-01T00:27:32;36.67;;;21.87;;
5898;SDS011;2975;50.956;6.962;2023-01-01T00:29:57;21.77;;;13.30;;
5898;SDS011;2975;50.956;6.962;2023-01-01T00:32:23;26.50;;;11.73;;
5898;SDS011;2975;50.956;6.962;2023-01-01T00:34:49;22.27;;;10.43;;
5898;SDS011;2975;50.956;6.962;2023-01-01T00:37:14;16.77;;;10.10;;
5898;SDS011;2975;50.956;6.962;2023-01-01T00:39:42;19.93;;;11.17;;
5898;SDS011;2975;50.956;6.962;2023-01-01T00:42:08;13.03;;;7.10;;
5898;SDS011;2975;50.956;6.962;2023-01-01T00:44:34;12.17;;;5.80;;
5898;SDS011;2975;50.956;6.962;2023-01-01T00:47:00;14.10;;;6.40;;
5898;SDS011;2975;50.956;6.962;2023-01-01T00:49:25;10.73;;;5.57;;
5898;SDS011;2975;50.956;6.962;2023-01-01T00:51:52;15.07;;;6.20;;
5898;SDS011;2975;50.956;6.962;2023-01-01T00:54:17;12.70;;;5.73;;
5898;SDS011;2975;50.956;6.962;2023-01-01T00:56:43;12.80;;;5.23;;
5898;SDS011;2975;50.956;6.962;2023-01-01T00:59:09;8.10;;;4.57;;
5898;SDS011;2975;50.956;6.962;2023-01-01T01:01:34;10.37;;;4.10;;
5898;SDS011;2975;50.956;6.962;2023-01-01T01:04:01;6.10;;;3.63;;
5898;SDS011;2975;50.956;6.962;2023-01-01T01:06:28;6.77;;;3.20;;
5898;SDS011;2975;50.956;6.962;2023-01-01T01:08:53;10.33;;;3.90;;
5898;SDS011;2975;50.956;6.962;2023-01-01T01:11:20;7.83;;;3.07;;
5898;SDS011;2975;50.956;6.962;2023-01-01T01:13:49;4.63;;;2.60;;
5898;SDS011;2975;50.956;6.962;2023-01-01T01:18:42;5.07;;;2.83;;
5898;SDS011;2975;50.956;6.962;2023-01-01T01:21:08;5.30;;;2.30;;
5898;SDS011;2975;50.956;6.962;2023-01-01T01:23:34;4.27;;;2.00;;
5898;SDS011;2975;50.956;6.962;2023-01-01T01:26:33;5.00;;;2.00;;
5898;SDS011;2975;50.956;6.962;2023-01-01T01:28:53;2.57;;;2.10;;
5898;SDS011;2975;50.956;6.962;2023-01-01T01:31:19;8.33;;;2.27;;
5898;SDS011;2975;50.956;6.962;2023-01-01T01:33:46;4.13;;;2.00;;
5898;SDS011;2975;50.956;6.962;2023-01-01T01:36:14;4.70;;;2.37;;
5898;SDS011;2975;50.956;6.962;2023-01-01T01:38:40;5.17;;;2.33;;
5898;SDS011;2975;50.956;6.962;2023-01-01T01:41:05;4.37;;;1.43;;
5898;SDS011;2975;50.956;6.962;2023-01-01T01:46:02;2.67;;;1.63;;
5898;SDS011;2975;50.956;6.962;2023-01-01T01:48:37;1.83;;;1.43;;
5898;SDS011;2975;50.956;6.962;2023-01-01T01:51:05;3.27;;;1.53;;
5898;SDS011;2975;50.956;6.962;2023-01-01T01:53:32;6.00;;;1.50;;
5898;SDS011;2975;50.956;6.962;2023-01-01T01:56:03;5.60;;;2.30;;
5898;SDS011;2975;50.956;6.962;2023-01-01T01:58:32;3.03;;;1.27;;
5898;SDS011;2975;50.956;6.962;2023-01-01T02:00:58;3.67;;;1.90;;
5898;SDS011;2975;50.956;6.962;2023-01-01T02:03:33;7.17;;;1.63;;
5898;SDS011;2975;50.956;6.962;2023-01-01T02:06:14;1.67;;;1.50;;
5898;SDS011;2975;50.956;6.962;2023-01-01T02:08:41;3.43;;;1.40;;
5898;SDS011;2975;50.956;6.962;2023-01-01T02:11:07;3.80;;;1.30;;
5898;SDS011;2975;50.956;6.962;2023-01-01T02:13:32;3.17;;;1.30;;
5898;SDS011;2975;50.956;6.962;2023-01-01T02:16:12;2.27;;;1.40;;
5898;SDS011;2975;50.956;6.962;2023-01-01T02:21:55;5.50;;;1.20;;
5898;SDS011;2975;50.956;6.962;2023-01-01T02:30:19;2.27;;;1.33;;
5898;SDS011;2975;50.956;6.962;2023-01-01T02:32:46;4.83;;;1.37;;
5898;SDS011;2975;50.956;6.962;2023-01-01T02:35:20;4.17;;;1.27;;
5898;SDS011;2975;50.956;6.962;2023-01-01T02:38:00;1.93;;;1.30;;
5898;SDS011;2975;50.956;6.962;2023-01-01T02:44:17;1.60;;;1.10;;
5898;SDS011;2975;50.956;6.962;2023-01-01T02:46:45;2.73;;;1.33;;
5898;SDS011;2975;50.956;6.962;2023-01-01T02:49:11;2.43;;;1.17;;
5898;SDS011;2975;50.956;6.962;2023-01-01T02:51:52;3.20;;;1.47;;
5898;SDS011;2975;50.956;6.962;2023-01-01T03:00:04;3.93;;;1.50;;
5898;SDS011;2975;50.956;6.962;2023-01-01T03:03:26;2.83;;;1.27;;
5898;SDS011;2975;50.956;6.962;2023-01-01T03:06:12;2.17;;;1.20;;
5898;SDS011;2975;50.956;6.962;2023-01-01T03:09:06;1.50;;;0.90;;
5898;SDS011;2975;50.956;6.962;2023-01-01T03:14:28;6.60;;;1.40;;
5898;SDS011;2975;50.956;6.962;2023-01-01T03:17:34;3.20;;;1.37;;
5898;SDS011;2975;50.956;6.962;2023-01-01T03:20:07;1.90;;;1.20;;
5898;SDS011;2975;50.956;6.962;2023-01-01T03:22:36;2.60;;;1.07;;
5898;SDS011;2975;50.956;6.962;2023-01-01T03:25:10;5.63;;;1.60;;
5898;SDS011;2975;50.956;6.962;2023-01-01T03:27:45;3.50;;;1.30;;
5898;SDS011;2975;50.956;6.962;2023-01-01T03:30:14;1.10;;;1.00;;
5898;SDS011;2975;50.956;6.962;2023-01-01T03:32:48;1.57;;;0.80;;
5898;SDS011;2975;50.956;6.962;2023-01-01T03:35:25;3.47;;;1.10;;
5898;SDS011;2975;50.956;6.962;2023-01-01T03:37:57;2.67;;;1.37;;
5898;SDS011;2975;50.956;6.962;2023-01-01T03:40:25;6.70;;;1.60;;
5898;SDS011;2975;50.956;6.962;2023-01-01T03:42:53;3.67;;;1.20;;
5898;SDS011;2975;50.956;6.962;2023-01-01T03:45:28;4.33;;;1.50;;
5898;SDS011;2975;50.956;6.962;2023-01-01T03:48:01;1.30;;;1.13;;
5898;SDS011;2975;50.956;6.962;2023-01-01T03:50:44;5.80;;;1.40;;
5898;SDS011;2975;50.956;6.962;2023-01-01T03:53:41;5.40;;;1.30;;
5898;SDS011;2975;50.956;6.962;2023-01-01T03:56:12;3.40;;;1.33;;
5898;SDS011;2975;50.956;6.962;2023-01-01T03:58:53;4.27;;;1.40;;
5898;SDS011;2975;50.956;6.962;2023-01-01T04:01:31;5.07;;;1.47;;
5898;SDS011;2975;50.956;6.962;2023-01-01T04:04:00;2.10;;;1.00;;
5898;SDS011;2975;50.956;6.962;2023-01-01T04:06:31;3.60;;;1.10;;
5898;SDS011;2975;50.956;6.962;2023-01-01T04:08:57;4.97;;;1.77;;
5898;SDS011;2975;50.956;6.962;2023-01-01T04:11:25;3.83;;;1.20;;
5898;SDS011;2975;50.956;6.962;2023-01-01T04:14:12;5.73;;;1.23;;
5898;SDS011;2975;50.956;6.962;2023-01-01T04:16:38;5.23;;;1.27;;
5898;SDS011;2975;50.956;6.962;2023-01-01T04:19:04;3.43;;;1.37;;
5898;SDS011;2975;50.956;6.962;2023-01-01T04:21:31;4.10;;;1.60;;
5898;SDS011;2975;50.956;6.962;2023-01-01T04:23:57;6.17;;;1.50;;
5898;SDS011;2975;50.956;6.962;2023-01-01T04:26:23;3.57;;;1.37;;
5898;SDS011;2975;50.956;6.962;2023-01-01T04:28:48;1.73;;;1.03;;
5898;SDS011;2975;50.956;6.962;2023-01-01T04:31:14;5.43;;;1.33;;
5898;SDS011;2975;50.956;6.962;2023-01-01T04:33:39;2.60;;;1.00;;
5898;SDS011;2975;50.956;6.962;2023-01-01T04:36:06;4.20;;;1.40;;
5898;SDS011;2975;50.956;6.962;2023-01-01T04:38:33;4.80;;;1.50;;
5898;SDS011;2975;50.956;6.962;2023-01-01T04:41:00;3.53;;;1.33;;
5898;SDS011;2975;50.956;6.962;2023-01-01T04:43:27;1.80;;;1.10;;
5898;SDS011;2975;50.956;6.962;2023-01-01T04:45:54;3.73;;;1.50;;
5898;SDS011;2975;50.956;6.962;2023-01-01T04:48:24;2.97;;;1.30;;
5898;SDS011;2975;50.956;6.962;2023-01-01T04:50:57;3.10;;;1.47;;
5898;SDS011;2975;50.956;6.962;2023-01-01T04:53:25;3.80;;;1.70;;
5898;SDS011;2975;50.956;6.962;2023-01-01T04:55:53;6.43;;;1.50;;
5898;SDS011;2975;50.956;6.962;2023-01-01T04:58:19;4.47;;;1.50;;
5898;SDS011;2975;50.956;6.962;2023-01-01T05:00:48;2.80;;;1.57;;
5898;SDS011;2975;50.956;6.962;2023-01-01T05:03:16;3.87;;;1.03;;
5898;SDS011;2975;50.956;6.962;2023-01-01T05:05:42;3.20;;;1.40;;
5898;SDS011;2975;50.956;6.962;2023-01-01T05:08:08;3.90;;;1.40;;
5898;SDS011;2975;50.956;6.962;2023-01-01T05:10:33;4.87;;;1.40;;
5898;SDS011;2975;50.956;6.962;2023-01-01T05:12:59;3.70;;;1.27;;
5898;SDS011;2975;50.956;6.962;2023-01-01T05:15:24;5.03;;;1.37;;
5898;SDS011;2975;50.956;6.962;2023-01-01T05:17:50;4.03;;;1.50;;
5898;SDS011;2975;50.956;6.962;2023-01-01T05:20:16;1.93;;;1.37;;
5898;SDS011;2975;50.956;6.962;2023-01-01T05:22:41;3.33;;;1.47;;
5898;SDS011;2975;50.956;6.962;2023-01-01T05:25:09;2.53;;;1.17;;
5898;SDS011;2975;50.956;6.962;2023-01-01T05:27:34;3.70;;;1.67;;
5898;SDS011;2975;50.956;6.962;2023-01-01T05:30:00;3.60;;;1.40;;
5898;SDS011;2975;50.956;6.962;2023-01-01T05:32:25;2.40;;;1.57;;
5898;SDS011;2975;50.956;6.962;2023-01-01T05:34:52;2.43;;;1.53;;
5898;SDS011;2975;50.956;6.962;2023-01-01T05:37:18;3.77;;;1.30;;
5898;SDS011;2975;50.956;6.962;2023-01-01T05:39:43;1.90;;;1.20;;
5898;SDS011;2975;50.956;6.962;2023-01-01T05:42:09;1.63;;;1.37;;
5898;SDS011;2975;50.956;6.962;2023-01-01T05:44:34;3.03;;;1.17;;
5898;SDS011;2975;50.956;6.962;2023-01-01T05:47:00;6.50;;;1.67;;
5898;SDS011;2975;50.956;6.962;2023-01-01T05:49:26;4.20;;;1.60;;
5898;SDS011;2975;50.956;6.962;2023-01-01T05:51:52;6.53;;;1.30;;
5898;SDS011;2975;50.956;6.962;2023-01-01T05:54:17;2.47;;;1.03;;
5898;SDS011;2975;50.956;6.962;2023-01-01T05:56:43;4.23;;;1.37;;
5898;SDS011;2975;50.956;6.962;2023-01-01T05:59:09;1.50;;;1.27;;
5898;SDS011;2975;50.956;6.962;2023-01-01T06:01:35;3.40;;;1.30;;
5898;SDS011;2975;50.956;6.962;2023-01-01T06:04:00;2.73;;;1.50;;
5898;SDS011;2975;50.956;6.962;2023-01-01T06:06:27;4.53;;;2.13;;
5898;SDS011;2975;50.956;6.962;2023-01-01T06:08:57;3.80;;;1.30;;
5898;SDS011;2975;50.956;6.962;2023-01-01T06:11:25;3.63;;;1.97;;
5898;SDS011;2975;50.956;6.962;2023-01-01T06:13:51;5.53;;;2.00;;
5898;SDS011;2975;50.956;6.962;2023-01-01T06:16:18;5.40;;;1.93;;
5898;SDS011;2975;50.956;6.962;2023-01-01T06:18:44;3.70;;;1.30;;
5898;SDS011;2975;50.956;6.962;2023-01-01T06:21:11;3.47;;;1.80;;
5898;SDS011;2975;50.956;6.962;2023-01-01T06:23:41;3.87;;;1.93;;
5898;SDS011;2975;50.956;6.962;2023-01-01T06:26:08;4.53;;;1.67;;
5898;SDS011;2975;50.956;6.962;2023-01-01T06:28:36;4.00;;;1.40;;
5898;SDS011;2975;50.956;6.962;2023-01-01T06:31:03;3.07;;;1.40;;
5898;SDS011;2975;50.956;6.962;2023-01-01T06:33:30;5.13;;;1.50;;
5898;SDS011;2975;50.956;6.962;2023-01-01T06:35:56;4.33;;;1.53;;
5898;SDS011;2975;50.956;6.962;2023-01-01T06:38:22;5.73;;;1.30;;
5898;SDS011;2975;50.956;6.962;2023-01-01T06:40:55;3.00;;;1.20;;
5898;SDS011;2975;50.956;6.962;2023-01-01T06:43:25;4.23;;;1.50;;
5898;SDS011;2975;50.956;6.962;2023-01-01T06:45:58;4.03;;;1.40;;
5898;SDS011;2975;50.956;6.962;2023-01-01T06:48:42;4.60;;;1.30;;
5898;SDS011;2975;50.956;6.962;2023-01-01T06:51:10;6.17;;;1.80;;
5898;SDS011;2975;50.956;6.962;2023-01-01T06:53:38;3.87;;;1.40;;
5898;SDS011;2975;50.956;6.962;2023-01-01T06:56:04;4.57;;;2.23;;
5898;SDS011;2975;50.956;6.962;2023-01-01T06:58:30;4.73;;;1.43;;
5898;SDS011;2975;50.956;6.962;2023-01-01T07:01:03;2.40;;;1.50;;
5898;SDS011;2975;50.956;6.962;2023-01-01T07:03:29;4.30;;;1.33;;
5898;SDS011;2975;50.956;6.962;2023-01-01T07:05:55;5.97;;;1.60;;
5898;SDS011;2975;50.956;6.962;2023-01-01T07:08:20;3.83;;;1.40;;
5898;SDS011;2975;50.956;6.962;2023-01-01T07:10:46;2.57;;;1.70;;
5898;SDS011;2975;50.956;6.962;2023-01-01T07:13:11;6.27;;;1.53;;
5898;SDS011;2975;50.956;6.962;2023-01-01T07:15:37;4.20;;;1.40;;
5898;SDS011;2975;50.956;6.962;2023-01-01T07:18:03;3.20;;;1.90;;
5898;SDS011;2975;50.956;6.962;2023-01-01T07:20:28;4.77;;;1.57;;
5898;SDS011;2975;50.956;6.962;2023-01-01T07:22:54;2.47;;;1.33;;
5898;SDS011;2975;50.956;6.962;2023-01-01T07:25:19;5.80;;;1.90;;
5898;SDS011;2975;50.956;6.962;2023-01-01T07:27:45;4.23;;;1.27;;
5898;SDS011;2975;50.956;6.962;2023-01-01T07:30:11;3.83;;;1.40;;
5898;SDS011;2975;50.956;6.962;2023-01-01T07:32:36;5.13;;;1.83;;
5898;SDS011;2975;50.956;6.962;2023-01-01T07:35:02;6.83;;;1.80;;
5898;SDS011;2975;50.956;6.962;2023-01-01T07:37:28;5.07;;;1.80;;
5898;SDS011;2975;50.956;6.962;2023-01-01T07:39:53;4.73;;;1.83;;
5898;SDS011;2975;50.956;6.962;2023-01-01T07:42:19;3.27;;;1.50;;
5898;SDS011;2975;50.956;6.962;2023-01-01T07:44:44;3.63;;;1.67;;
5898;SDS011;2975;50.956;6.962;2023-01-01T07:47:20;3.50;;;1.50;;
5898;SDS011;2975;50.956;6.962;2023-01-01T07:49:48;3.87;;;1.50;;
5898;SDS011;2975;50.956;6.962;2023-01-01T07:52:14;4.10;;;1.80;;
5898;SDS011;2975;50.956;6.962;2023-01-01T07:54:40;4.97;;;1.43;;
5898;SDS011;2975;50.956;6.962;2023-01-01T07:57:05;3.90;;;1.70;;
5898;SDS011;2975;50.956;6.962;2023-01-01T07:59:31;3.00;;;1.73;;
5898;SDS011;2975;50.956;6.962;2023-01-01T08:01:57;3.37;;;1.53;;
5898;SDS011;2975;50.956;6.962;2023-01-01T08:04:23;5.30;;;1.73;;
5898;SDS011;2975;50.956;6.962;2023-01-01T08:06:51;4.63;;;1.50;;
5898;SDS011;2975;50.956;6.962;2023-01-01T08:09:17;1.70;;;1.47;;
5898;SDS011;2975;50.956;6.962;2023-01-01T08:11:43;6.20;;;1.60;;
5898;SDS011;2975;50.956;6.962;2023-01-01T08:14:09;4.10;;;1.63;;
5898;SDS011;2975;50.956;6.962;2023-01-01T08:16:35;4.83;;;1.87;;
5898;SDS011;2975;50.956;6.962;2023-01-01T08:19:01;4.37;;;1.40;;
5898;SDS011;2975;50.956;6.962;2023-01-01T08:21:26;6.37;;;1.93;;
5898;SDS011;2975;50.956;6.962;2023-01-01T08:23:52;5.30;;;1.60;;
5898;SDS011;2975;50.956;6.962;2023-01-01T08:26:24;5.87;;;1.57;;
5898;SDS011;2975;50.956;6.962;2023-01-01T08:28:55;3.50;;;1.70;;
5898;SDS011;2975;50.956;6.962;2023-01-01T08:31:21;3.57;;;1.77;;
5898;SDS011;2975;50.956;6.962;2023-01-01T08:33:47;3.40;;;1.40;;
5898;SDS011;2975;50.956;6.962;2023-01-01T08:36:12;4.07;;;1.60;;
5898;SDS011;2975;50.956;6.962;2023-01-01T08:38:40;3.03;;;1.47;;
5898;SDS011;2975;50.956;6.962;2023-01-01T08:41:06;5.30;;;2.07;;
5898;SDS011;2975;50.956;6.962;2023-01-01T08:43:32;2.10;;;1.17;;
5898;SDS011;2975;50.956;6.962;2023-01-01T08:45:57;5.77;;;1.70;;
5898;SDS011;2975;50.956;6.962;2023-01-01T08:48:23;2.93;;;1.60;;
5898;SDS011;2975;50.956;6.962;2023-01-01T08:50:55;4.00;;;1.77;;
5898;SDS011;2975;50.956;6.962;2023-01-01T08:53:24;3.60;;;1.40;;
5898;SDS011;2975;50.956;6.962;2023-01-01T08:58:22;5.13;;;1.40;;
5898;SDS011;2975;50.956;6.962;2023-01-01T09:00:47;4.27;;;1.33;;
5898;SDS011;2975;50.956;6.962;2023-01-01T09:03:13;4.70;;;2.23;;
5898;SDS011;2975;50.956;6.962;2023-01-01T09:05:38;3.37;;;1.40;;
5898;SDS011;2975;50.956;6.962;2023-01-01T09:08:09;3.53;;;1.67;;
5898;SDS011;2975;50.956;6.962;2023-01-01T09:10:35;3.93;;;1.80;;
5898;SDS011;2975;50.956;6.962;2023-01-01T09:13:01;5.93;;;1.63;;
5898;SDS011;2975;50.956;6.962;2023-01-01T09:15:26;3.97;;;1.70;;
5898;SDS011;2975;50.956;6.962;2023-01-01T09:17:52;6.63;;;2.07;;
5898;SDS011;2975;50.956;6.962;2023-01-01T09:20:18;6.17;;;1.83;;
5898;SDS011;2975;50.956;6.962;2023-01-01T09:22:43;5.30;;;2.07;;
5898;SDS011;2975;50.956;6.962;2023-01-01T09:25:09;6.40;;;1.80;;
5898;SDS011;2975;50.956;6.962;2023-01-01T09:27:34;5.07;;;1.80;;
5898;SDS011;2975;50.956;6.962;2023-01-01T09:30:00;3.50;;;1.70;;
5898;SDS011;2975;50.956;6.962;2023-01-01T09:32:26;3.33;;;1.40;;
5898;SDS011;2975;50.956;6.962;2023-01-01T09:34:51;10.10;;;1.67;;
5898;SDS011;2975;50.956;6.962;2023-01-01T09:37:17;4.70;;;1.73;;
5898;SDS011;2975;50.956;6.962;2023-01-01T09:39:42;5.37;;;1.80;;
5898;SDS011;2975;50.956;6.962;2023-01-01T09:45:10;6.30;;;1.90;;
5898;SDS011;2975;50.956;6.962;2023-01-01T09:48:02;3.47;;;1.53;;
5898;SDS011;2975;50.956;6.962;2023-01-01T09:50:40;3.50;;;1.57;;
5898;SDS011;2975;50.956;6.962;2023-01-01T09:55:49;3.20;;;1.70;;
5898;SDS011;2975;50.956;6.962;2023-01-01T09:58:20;1.63;;;1.13;;
5898;SDS011;2975;50.956;6.962;2023-01-01T10:06:55;5.60;;;1.33;;
5898;SDS011;2975;50.956;6.962;2023-01-01T10:09:49;5.10;;;1.60;;
5898;SDS011;2975;50.956;6.962;2023-01-01T10:12:43;5.27;;;1.77;;
5898;SDS011;2975;50.956;6.962;2023-01-01T10:15:32;2.40;;;1.47;;
5898;SDS011;2975;50.956;6.962;2023-01-01T10:18:06;3.67;;;1.60;;
5898;SDS011;2975;50.956;6.962;2023-01-01T10:21:00;4.27;;;1.27;;
5898;SDS011;2975;50.956;6.962;2023-01-01T10:26:07;4.43;;;1.67;;
5898;SDS011;2975;50.956;6.962;2023-01-01T10:31:19;5.80;;;1.33;;
5898;SDS011;2975;50.956;6.962;2023-01-01T10:33:52;7.03;;;1.60;;
5898;SDS011;2975;50.956;6.962;2023-01-01T10:36:18;2.20;;;1.50;;
5898;SDS011;2975;50.956;6.962;2023-01-01T10:38:44;3.17;;;1.23;;
5898;SDS011;2975;50.956;6.962;2023-01-01T10:41:14;6.80;;;1.83;;
5898;SDS011;2975;50.956;6.962;2023-01-01T10:43:41;4.53;;;1.50;;
5898;SDS011;2975;50.956;6.962;2023-01-01T10:46:10;5.60;;;1.70;;
5898;SDS011;2975;50.956;6.962;2023-01-01T10:48:39;2.67;;;1.30;;
5898;SDS011;2975;50.956;6.962;2023-01-01T10:51:13;6.83;;;1.70;;
5898;SDS011;2975;50.956;6.962;2023-01-01T10:53:41;3.13;;;1.00;;
5898;SDS011;2975;50.956;6.962;2023-01-01T10:56:18;5.63;;;1.40;;
5898;SDS011;2975;50.956;6.962;2023-01-01T10:58:49;3.33;;;1.60;;
5898;SDS011;2975;50.956;6.962;2023-01-01T11:03:51;3.70;;;1.53;;
5898;SDS011;2975;50.956;6.962;2023-01-01T11:06:19;4.97;;;1.73;;
5898;SDS011;2975;50.956;6.962;2023-01-01T11:08:48;4.90;;;1.50;;
5898;SDS011;2975;50.956;6.962;2023-01-01T11:11:24;4.83;;;1.47;;
5898;SDS011;2975;50.956;6.962;2023-01-01T11:14:18;4.53;;;1.53;;
5898;SDS011;2975;50.956;6.962;2023-01-01T11:16:46;4.97;;;1.63;;
5898;SDS011;2975;50.956;6.962;2023-01-01T11:19:16;4.97;;;1.80;;
5898;SDS011;2975;50.956;6.962;2023-01-01T11:21:47;4.33;;;1.97;;
5898;SDS011;2975;50.956;6.962;2023-01-01T11:24:17;5.57;;;2.00;;
5898;SDS011;2975;50.956;6.962;2023-01-01T11:26:48;3.27;;;1.70;;
5898;SDS011;2975;50.956;6.962;2023-01-01T11:31:44;6.50;;;1.97;;
5898;SDS011;2975;50.956;6.962;2023-01-01T11:36:48;6.60;;;2.10;;
5898;SDS011;2975;50.956;6.962;2023-01-01T11:41:47;9.27;;;2.03;;
5898;SDS011;2975;50.956;6.962;2023-01-01T11:44:23;5.70;;;2.30;;
5898;SDS011;2975;50.956;6.962;2023-01-01T11:47:01;5.73;;;1.97;;
5898;SDS011;2975;50.956;6.962;2023-01-01T11:49:29;7.63;;;2.03;;
5898;SDS011;2975;50.956;6.962;2023-01-01T11:51:56;4.33;;;1.90;;
5898;SDS011;2975;50.956;6.962;2023-01-01T11:56:57;5.90;;;2.00;;
5898;SDS011;2975;50.956;6.962;2023-01-01T11:59:29;5.83;;;1.87;;
5898;SDS011;2975;50.956;6.962;2023-01-01T12:02:07;6.87;;;1.90;;
5898;SDS011;2975;50.956;6.962;2023-01-01T12:04:37;5.10;;;1.60;;
5898;SDS011;2975;50.956;6.962;2023-01-01T12:07:12;4.90;;;1.77;;
5898;SDS011;2975;50.956;6.962;2023-01-01T12:12:56;3.97;;;1.10;;
5898;SDS011;2975;50.956;6.962;2023-01-01T12:15:25;4.83;;;1.73;;
5898;SDS011;2975;50.956;6.962;2023-01-01T12:18:20;2.40;;;1.47;;
5898;SDS011;2975;50.956;6.962;2023-01-01T12:21:02;4.73;;;1.60;;
5898;SDS011;2975;50.956;6.962;2023-01-01T12:23:38;3.97;;;1.90;;
5898;SDS011;2975;50.956;6.962;2023-01-01T12:26:10;6.93;;;2.00;;
5898;SDS011;2975;50.956;6.962;2023-01-01T12:28:52;2.73;;;1.37;;
5898;SDS011;2975;50.956;6.962;2023-01-01T12:34:27;4.67;;;1.70;;
5898;SDS011;2975;50.956;6.962;2023-01-01T12:37:22;4.70;;;1.67;;
5898;SDS011;2975;50.956;6.962;2023-01-01T12:40:25;4.50;;;1.40;;
5898;SDS011;2975;50.956;6.962;2023-01-01T12:43:15;2.33;;;1.50;;
5898;SDS011;2975;50.956;6.962;2023-01-01T12:54:05;4.07;;;1.10;;
5898;SDS011;2975;50.956;6.962;2023-01-01T12:59:37;3.93;;;1.67;;
5898;SDS011;2975;50.956;6.962;2023-01-01T13:02:26;3.83;;;1.40;;
5898;SDS011;2975;50.956;6.962;2023-01-01T13:05:02;4.60;;;1.40;;
5898;SDS011;2975;50.956;6.962;2023-01-01T13:07:51;6.67;;;1.60;;
5898;SDS011;2975;50.956;6.962;2023-01-01T13:10:28;5.90;;;1.60;;
5898;SDS011;2975;50.956;6.962;2023-01-01T13:12:59;3.40;;;1.70;;
5898;SDS011;2975;50.956;6.962;2023-01-01T13:18:04;5.80;;;1.67;;
5898;SDS011;2975;50.956;6.962;2023-01-01T13:20:30;6.27;;;1.50;;
5898;SDS011;2975;50.956;6.962;2023-01-01T13:22:57;3.77;;;1.30;;
5898;SDS011;2975;50.956;6.962;2023-01-01T13:25:23;3.77;;;1.50;;
5898;SDS011;2975;50.956;6.962;2023-01-01T13:33:26;4.27;;;1.87;;
5898;SDS011;2975;50.956;6.962;2023-01-01T13:46:36;3.50;;;1.73;;
5898;SDS011;2975;50.956;6.962;2023-01-01T13:51:55;3.73;;;1.50;;
5898;SDS011;2975;50.956;6.962;2023-01-01T14:03:13;5.17;;;1.47;;
5898;SDS011;2975;50.956;6.962;2023-01-01T14:05:41;4.53;;;1.80;;
5898;SDS011;2975;50.956;6.962;2023-01-01T14:08:31;7.33;;;1.40;;
5898;SDS011;2975;50.956;6.962;2023-01-01T14:10:59;7.63;;;1.40;;
5898;SDS011;2975;50.956;6.962;2023-01-01T14:13:29;3.47;;;1.57;;
5898;SDS011;2975;50.956;6.962;2023-01-01T14:16:03;4.73;;;1.47;;
5898;SDS011;2975;50.956;6.962;2023-01-01T14:21:02;5.50;;;1.13;;
5898;SDS011;2975;50.956;6.962;2023-01-01T14:26:27;4.83;;;1.50;;
5898;SDS011;2975;50.956;6.962;2023-01-01T14:28:56;4.83;;;1.70;;
5898;SDS011;2975;50.956;6.962;2023-01-01T14:31:25;3.07;;;1.80;;
5898;SDS011;2975;50.956;6.962;2023-01-01T14:33:56;4.60;;;1.37;;
5898;SDS011;2975;50.956;6.962;2023-01-01T14:38:50;5.10;;;1.30;;
5898;SDS011;2975;50.956;6.962;2023-01-01T14:43:57;3.73;;;1.13;;
5898;SDS011;2975;50.956;6.962;2023-01-01T14:46:39;2.27;;;1.30;;
5898;SDS011;2975;50.956;6.962;2023-01-01T14:49:07;3.60;;;1.57;;
5898;SDS011;2975;50.956;6.962;2023-01-01T14:51:35;3.87;;;1.30;;
5898;SDS011;2975;50.956;6.962;2023-01-01T14:54:02;4.03;;;1.70;;
5898;SDS011;2975;50.956;6.962;2023-01-01T14:59:01;5.90;;;1.30;;
5898;SDS011;2975;50.956;6.962;2023-01-01T15:01:28;2.43;;;1.07;;
5898;SDS011;2975;50.956;6.962;2023-01-01T15:03:58;1.70;;;0.87;;
5898;SDS011;2975;50.956;6.962;2023-01-01T15:06:29;6.83;;;1.60;;
5898;SDS011;2975;50.956;6.962;2023-01-01T15:08:56;3.03;;;1.63;;
5898;SDS011;2975;50.956;6.962;2023-01-01T15:11:22;3.23;;;1.23;;
5898;SDS011;2975;50.956;6.962;2023-01-01T15:16:24;2.10;;;1.43;;
5898;SDS011;2975;50.956;6.962;2023-01-01T15:18:51;5.80;;;2.03;;
5898;SDS011;2975;50.956;6.962;2023-01-01T15:24:14;5.20;;;1.40;;
5898;SDS011;2975;50.956;6.962;2023-01-01T15:26:54;2.90;;;1.40;;
5898;SDS011;2975;50.956;6.962;2023-01-01T15:29:26;3.60;;;1.70;;
5898;SDS011;2975;50.956;6.962;2023-01-01T15:31:58;2.93;;;1.43;;
5898;SDS011;2975;50.956;6.962;2023-01-01T15:39:45;3.70;;;1.33;;
5898;SDS011;2975;50.956;6.962;2023-01-01T15:42:36;4.53;;;1.20;;
5898;SDS011;2975;50.956;6.962;2023-01-01T15:45:13;3.97;;;1.73;;
5898;SDS011;2975;50.956;6.962;2023-01-01T15:47:45;4.60;;;1.30;;
5898;SDS011;2975;50.956;6.962;2023-01-01T15:50:18;5.03;;;1.50;;
5898;SDS011;2975;50.956;6.962;2023-01-01T15:52:47;2.60;;;0.87;;
5898;SDS011;2975;50.956;6.962;2023-01-01T15:55:15;3.20;;;1.60;;
5898;SDS011;2975;50.956;6.962;2023-01-01T15:57:48;2.00;;;1.30;;
5898;SDS011;2975;50.956;6.962;2023-01-01T16:02:51;1.97;;;1.23;;
5898;SDS011;2975;50.956;6.962;2023-01-01T16:05:21;5.57;;;1.87;;
5898;SDS011;2975;50.956;6.962;2023-01-01T16:08:04;4.90;;;2.03;;
5898;SDS011;2975;50.956;6.962;2023-01-01T16:10:30;3.97;;;2.17;;
5898;SDS011;2975;50.956;6.962;2023-01-01T16:12:56;3.50;;;1.33;;
5898;SDS011;2975;50.956;6.962;2023-01-01T16:15:22;4.10;;;1.47;;
5898;SDS011;2975;50.956;6.962;2023-01-01T16:17:49;2.70;;;1.40;;
5898;SDS011;2975;50.956;6.962;2023-01-01T16:20:16;3.77;;;2.00;;
5898;SDS011;2975;50.956;6.962;2023-01-01T16:22:43;2.43;;;1.47;;
5898;SDS011;2975;50.956;6.962;2023-01-01T16:25:13;6.97;;;3.93;;
5898;SDS011;2975;50.956;6.962;2023-01-01T16:27:40;6.77;;;3.67;;
5898;SDS011;2975;50.956;6.962;2023-01-01T16:30:05;7.17;;;1.97;;
5898;SDS011;2975;50.956;6.962;2023-01-01T16:32:31;4.73;;;2.00;;
5898;SDS011;2975;50.956;6.962;2023-01-01T16:34:57;6.57;;;2.10;;
5898;SDS011;2975;50.956;6.962;2023-01-01T16:37:23;4.40;;;2.37;;
5898;SDS011;2975;50.956;6.962;2023-01-01T16:39:48;3.10;;;1.43;;
5898;SDS011;2975;50.956;6.962;2023-01-01T16:42:14;2.97;;;1.30;;
5898;SDS011;2975;50.956;6.962;2023-01-01T16:44:40;1.73;;;1.17;;
5898;SDS011;2975;50.956;6.962;2023-01-01T16:47:06;3.00;;;1.53;;
5898;SDS011;2975;50.956;6.962;2023-01-01T16:49:32;6.93;;;1.90;;
5898;SDS011;2975;50.956;6.962;2023-01-01T16:51:57;3.53;;;1.67;;
5898;SDS011;2975;50.956;6.962;2023-01-01T16:54:23;5.40;;;1.70;;
5898;SDS011;2975;50.956;6.962;2023-01-01T16:56:49;6.17;;;2.20;;
5898;SDS011;2975;50.956;6.962;2023-01-01T16:59:14;14.27;;;8.33;;
5898;SDS011;2975;50.956;6.962;2023-01-01T17:01:40;16.57;;;9.77;;
5898;SDS011;2975;50.956;6.962;2023-01-01T17:04:06;23.67;;;12.40;;
5898;SDS011;2975;50.956;6.962;2023-01-01T17:06:31;25.53;;;11.30;;
5898;SDS011;2975;50.956;6.962;2023-01-01T17:09:00;25.73;;;11.63;;
5898;SDS011;2975;50.956;6.962;2023-01-01T17:11:26;13.57;;;7.23;;
5898;SDS011;2975;50.956;6.962;2023-01-01T17:13:51;15.67;;;6.50;;
5898;SDS011;2975;50.956;6.962;2023-01-01T17:16:17;10.97;;;4.77;;
5898;SDS011;2975;50.956;6.962;2023-01-01T17:18:47;8.47;;;4.13;;
5898;SDS011;2975;50.956;6.962;2023-01-01T17:21:16;8.23;;;4.53;;
5898;SDS011;2975;50.956;6.962;2023-01-01T17:23:42;10.17;;;4.87;;
5898;SDS011;2975;50.956;6.962;2023-01-01T17:28:35;11.70;;;4.83;;
5898;SDS011;2975;50.956;6.962;2023-01-01T17:31:04;11.87;;;7.53;;
5898;SDS011;2975;50.956;6.962;2023-01-01T17:33:32;13.40;;;6.57;;
5898;SDS011;2975;50.956;6.962;2023-01-01T17:35:58;10.40;;;6.10;;
5898;SDS011;2975;50.956;6.962;2023-01-01T17:38:24;11.87;;;6.40;;
5898;SDS011;2975;50.956;6.962;2023-01-01T17:40:49;10.67;;;6.63;;
5898;SDS011;2975;50.956;6.962;2023-01-01T17:43:15;11.13;;;6.53;;